• Join FlightAware (Why Join?)
  • Login
  • US Flag 
04:17AM EDT


 

Airport Tracker/Info


-or-


 

Live Flight TrackerFlight Track Log ✈ VAU9090 ✈ 31-Jan-2009 ✈ KPAE - KVCV

Flight Track Log - Related Links

Times and Time Zones

All times are in EST time to prevent confusion due to time zone crossing. See the VAU9090 flight status page for this flight to view local times or setup timezone preferences in your user account.

Time Position Orientation Groundspeed Altitude Reporting Facility
EST Latitude Longitude Course Direction KTS MPH feet Rate Location/Type
05:19PM 47.8839 -122.2680 196° South 39,000  Level Seattle Center
05:20PM 47.8167 -122.2960 245° Southwest 402 463 4,300 -17,040 Descending Seattle Center
05:21PM 47.7878 -122.3870 237° Southwest 267 307 5,000 1,860 Climbing Seattle Center
05:22PM 47.7481 -122.4780 192° South 273 314 8,100 3,060 Climbing Seattle Center
05:23PM 47.6894 -122.4970 162° South 307 353 11,200 3,120 Climbing Seattle Center
05:24PM 47.6050 -122.4560 161° South 306 352 14,400 2,700 Climbing Seattle Center
05:25PM 47.5167 -122.4110 177° South 320 368 16,700 1,920 Climbing Seattle Center
05:26PM 47.4086 -122.4030 182° South 352 405 18,300 2,940 Climbing Seattle Center
05:27PM 47.2439 -122.4100 181° South 445 512 23,200 3,540 Climbing Seattle Center
05:28PM 47.1147 -122.4130 168° South 451 519 26,100 2,700 Climbing Seattle Center
05:29PM 46.9806 -122.3700 163° South 480 552 28,700 2,400 Climbing Seattle Center
05:30PM 46.8403 -122.3090 163° South 503 579 31,000 2,700 Climbing Seattle Center
05:31PM 46.6958 -122.2450 163° South 523 602 34,100 3,000 Climbing Seattle Center
05:32PM 46.5536 -122.1810 164° South 530 610 37,000 2,400 Climbing Seattle Center
05:33PM 46.4214 -122.1250 163° South 523 602 38,900 960 Climbing Seattle Center
05:34PM 46.2831 -122.0650 163° South 512 589 39,000  Climbing Seattle Center
05:35PM 46.1531 -122.0060 163° South 507 583 39,000  Level Seattle Center
05:36PM 46.0106 -121.9430 164° South 515 593 39,000  Level Seattle Center
05:37PM 45.8719 -121.8840 164° South 522 601 39,000  Level Seattle Center
05:38PM 45.7336 -121.8260 162° South 522 601 39,000  Level Seattle Center
05:39PM 45.5950 -121.7610 164° South 527 606 39,000  Level Seattle Center
05:40PM 45.4564 -121.7060 163° South 527 606 39,000  Level Seattle Center
05:41PM 45.3219 -121.6490 163° South 521 600 39,000  Level Seattle Center
05:42PM 45.1564 -121.5760 164° South 516 594 39,000  Level Seattle Center
05:43PM 45.0178 -121.5210 163° South 516 594 39,000  Level Seattle Center
05:44PM 44.8811 -121.4620 164° South 516 594 39,000  Level Seattle Center
05:45PM 44.7547 -121.4110 163° South 516 594 39,000  Level Seattle Center
05:46PM 44.6014 -121.3460 164° South 521 600 39,000  Level Seattle Center
05:47PM 44.4647 -121.2900 165° South 521 600 39,000  Level Seattle Center
05:48PM 44.3381 -121.2430 162° South 521 600 39,000  Level Seattle Center
05:49PM 44.1972 -121.1810 165° South 521 600 39,000  Level Seattle Center
05:50PM 44.0583 -121.1290 164° South 527 606 39,000  Level Seattle Center
05:51PM 43.9172 -121.0710 164° South 532 612 39,000  Level Seattle Center
05:52PM 43.7761 -121.0160 164° South 532 612 39,000  Level Seattle Center
05:53PM 43.6369 -120.9620 162° South 532 612 39,000 -60 Level Seattle Center
05:54PM 43.4919 -120.8960 164° South 532 612 38,900  Descending Seattle Center
05:55PM 43.3506 -120.8390 164° South 532 612 39,000  Climbing Seattle Center
05:56PM 43.2136 -120.7860 164° South 527 606 38,900 -60 Descending Seattle Center
05:57PM 43.0722 -120.7320 165° South 527 606 38,900  Level Seattle Center
05:58PM 42.9311 -120.6790 164° South 532 612 38,900  Level Seattle Center
05:59PM 42.7878 -120.6230 164° South 532 612 38,900  Level Seattle Center
06:00PM 42.6486 -120.5670 164° South 532 612 39,000  Climbing Seattle Center
06:01PM 42.5072 -120.5120 167° South 532 612 38,900  Descending Seattle Center
06:02PM 42.3678 -120.4680 168° South 526 605 39,000  Climbing Seattle Center
06:03PM 42.2264 -120.4280 168° South 526 605 39,000  Level Seattle Center
06:04PM 42.0828 -120.3870 167° South 526 605 39,000  Level Seattle Center
06:05PM 41.9456 -120.3440 168° South 526 605 39,000 -60 Level Seattle Center
06:06PM 41.8019 -120.3040 168° South 526 605 38,900  Descending Seattle Center
06:07PM 41.6625 -120.2640 167° South 526 605 39,000  Climbing Seattle Center
06:08PM 41.5250 -120.2210 167° South 520 598 38,900 -120 Descending Seattle Center
06:09PM 41.4419 -120.1960 168° South 514 592 38,900 60 Level Oakland Center
06:10PM 41.3061 -120.1590 168° South 475 547 39,000  Climbing Oakland Center
06:11PM 41.1683 -120.1190 167° South 480 552 38,900 -60 Descending Oakland Center
06:12PM 41.0328 -120.0790 168° South 495 570 38,900  Level Oakland Center
06:13PM 40.9242 -120.0480 168° South 495 570 39,000  Climbing Oakland Center
06:14PM 40.7781 -120.0060 168° South 495 570 38,900  Descending Oakland Center
06:15PM 40.6400 -119.9670 168° South 500 575 39,000  Climbing Oakland Center
06:16PM 40.4897 -119.9250 168° South 500 575 39,000  Level Oakland Center
06:17PM 40.3539 -119.8870 168° South 505 581 39,000  Level Oakland Center
06:18PM 40.2181 -119.8480 168° South 505 581 39,000  Level Oakland Center
06:19PM 40.0822 -119.8090 169° South 505 581 39,000  Level Oakland Center
06:20PM 39.9442 -119.7740 167° South 510 587 39,000  Level Oakland Center
06:21PM 39.8022 -119.7330 168° South 510 587 39,000  Level Oakland Center
06:22PM 39.6619 -119.6950 169° South 510 587 39,000  Level Oakland Center
06:23PM 39.5239 -119.6600 172° South 510 587 39,000  Level Oakland Center
06:24PM 39.3861 -119.6360 174° South 510 587 39,000  Level Oakland Center
06:25PM 39.2461 -119.6170 174° South 505 581 39,000  Level Oakland Center
06:26PM 39.1231 -119.6000 173° South 505 581 39,000  Level Oakland Center
06:27PM 38.9850 -119.5790 173° South 500 575 39,000  Level Oakland Center
06:28PM 38.8494 -119.5580 174° South 500 575 39,000  Level Oakland Center
06:29PM 38.7114 -119.5390 173° South 505 581 39,000  Level Oakland Center
06:30PM 38.5736 -119.5180 174° South 505 581 39,000  Level Oakland Center
06:31PM 38.4336 -119.4990 171° South 505 581 39,000  Level Oakland Center
06:32PM 38.3019 -119.4730 176° South 500 575 39,000  Level Oakland Center
06:33PM 38.1578 -119.4600 172° South 505 581 39,000  Level Oakland Center
06:34PM 38.0197 -119.4360 173° South 505 581 39,000  Level Oakland Center
06:35PM 37.8819 -119.4160 173° South 505 581 39,000  Level Oakland Center
06:36PM 37.7461 -119.3950 174° South 505 581 39,000  Level Oakland Center
06:37PM 37.5872 -119.3750 178° South 505 581 39,000  Level Oakland Center
06:38PM 37.4639 -119.3690 173° South 505 581 39,000  Level Oakland Center
06:39PM 37.3281 -119.3490 174° South 500 575 39,000  Level Oakland Center
06:40PM 37.1881 -119.3290 174° South 500 575 39,000  Level Oakland Center
06:41PM 37.0503 -119.3110 173° South 500 575 39,000  Level Oakland Center
06:42PM 36.9142 -119.2900 174° South 500 575 39,000  Level Oakland Center
06:43PM 36.7783 -119.2720 174° South 500 575 39,000  Level Oakland Center
06:44PM 36.6447 -119.2550 173° South 495 570 39,000  Level Oakland Center
06:44PM 36.6264 -119.2520 173° South 499 574 39,000  Level Los Angeles Center
06:45PM 36.4892 -119.2310 175° South 499 574 39,000  Level Los Angeles Center
06:46PM 36.3542 -119.2150 173° South 499 574 39,000  Level Los Angeles Center
06:47PM 36.2169 -119.1950 166° South 499 574 39,000  Level Los Angeles Center
06:48PM 36.0844 -119.1540 156° South 499 574 39,000  Level Los Angeles Center
06:49PM 35.9547 -119.0840 158° South 499 574 39,000 -240 Level Los Angeles Center
06:50PM 35.8147 -119.0130 159° South 499 574 38,600 -900 Descending Los Angeles Center
06:51PM 35.6825 -118.9490 157° South 504 580 37,300 -1,380 Descending Los Angeles Center
06:52PM 35.5506 -118.8810 158° South 504 580 35,900 -1,320 Descending Los Angeles Center
06:53PM 35.4228 -118.8180 158° South 510 587 34,700 -2,220 Descending Los Angeles Center
06:54PM 35.2906 -118.7530 158° South 510 587 31,500 -3,000 Descending Los Angeles Center
06:55PM 35.1647 -118.6900 158° South 505 581 28,800 -1,800 Descending Los Angeles Center
06:56PM 35.0428 -118.6310 138° Southeast 491 565 28,000 -2,040 Descending Los Angeles Center
06:57PM 34.9528 -118.5310 131° Southeast 449 517 24,800 -2,400 Descending Los Angeles Center
06:58PM 34.8817 -118.4310 129° Southeast 443 510 23,200 -1,800 Descending Los Angeles Center
06:59PM 34.8067 -118.3200 131° Southeast 433 498 21,200 -1,620 Descending Los Angeles Center
07:00PM 34.7314 -118.2140 128° Southeast 420 483 20,000 -1,200 Descending Los Angeles Center
07:01PM 34.6642 -118.1110 111° Southeast 406 467 18,800 -1,260 Descending Los Angeles Center
07:02PM 34.6283 -117.9970 92° East 373 429 17,500 -1,500 Descending Los Angeles Center
07:03PM 34.6239 -117.8760 95° East 360 414 15,800 -1,740 Descending Los Angeles Center
07:04PM 34.6153 -117.7570 95° East 355 409 14,100 -1,740 Descending Los Angeles Center